sensor_id;sensor_type;location;lat;lon;timestamp;P1;durP1;ratioP1;P2;durP2;ratioP2
69771;SDS011;57046;45.988;18.664;2023-02-21T00:02:06;0.20;;;0.20;;
69771;SDS011;57046;45.988;18.664;2023-02-21T00:04:31;0.10;;;0.10;;
69771;SDS011;57046;45.988;18.664;2023-02-21T00:06:57;0.30;;;0.27;;
69771;SDS011;57046;45.988;18.664;2023-02-21T00:09:22;0.20;;;0.20;;
69771;SDS011;57046;45.988;18.664;2023-02-21T00:11:48;0.30;;;0.20;;
69771;SDS011;57046;45.988;18.664;2023-02-21T00:14:13;0.20;;;0.00;;
69771;SDS011;57046;45.988;18.664;2023-02-21T00:16:38;0.10;;;0.00;;
69771;SDS011;57046;45.988;18.664;2023-02-21T00:19:04;0.40;;;0.07;;
69771;SDS011;57046;45.988;18.664;2023-02-21T00:21:29;0.60;;;0.60;;
69771;SDS011;57046;45.988;18.664;2023-02-21T00:23:55;0.10;;;0.00;;
69771;SDS011;57046;45.988;18.664;2023-02-21T00:26:20;0.97;;;0.60;;
69771;SDS011;57046;45.988;18.664;2023-02-21T00:28:46;0.30;;;0.20;;
69771;SDS011;57046;45.988;18.664;2023-02-21T00:31:12;0.10;;;0.00;;
69771;SDS011;57046;45.988;18.664;2023-02-21T00:33:41;0.10;;;0.00;;
69771;SDS011;57046;45.988;18.664;2023-02-21T00:36:07;0.10;;;0.00;;
69771;SDS011;57046;45.988;18.664;2023-02-21T00:38:32;1.00;;;0.30;;
69771;SDS011;57046;45.988;18.664;2023-02-21T00:41:00;0.80;;;0.52;;
69771;SDS011;57046;45.988;18.664;2023-02-21T00:43:32;1.03;;;0.40;;
69771;SDS011;57046;45.988;18.664;2023-02-21T00:45:59;0.20;;;0.20;;
69771;SDS011;57046;45.988;18.664;2023-02-21T00:48:24;0.20;;;0.10;;
69771;SDS011;57046;45.988;18.664;2023-02-21T00:50:49;0.10;;;0.00;;
69771;SDS011;57046;45.988;18.664;2023-02-21T00:53:15;0.43;;;0.20;;
69771;SDS011;57046;45.988;18.664;2023-02-21T00:55:40;0.10;;;0.00;;
69771;SDS011;57046;45.988;18.664;2023-02-21T00:58:05;0.20;;;0.10;;
69771;SDS011;57046;45.988;18.664;2023-02-21T01:00:31;0.30;;;0.20;;
69771;SDS011;57046;45.988;18.664;2023-02-21T01:02:56;0.10;;;0.00;;
69771;SDS011;57046;45.988;18.664;2023-02-21T01:05:22;1.30;;;0.23;;
69771;SDS011;57046;45.988;18.664;2023-02-21T01:07:47;1.27;;;1.17;;
69771;SDS011;57046;45.988;18.664;2023-02-21T01:10:12;0.10;;;0.00;;
69771;SDS011;57046;45.988;18.664;2023-02-21T01:12:38;0.20;;;0.20;;
69771;SDS011;57046;45.988;18.664;2023-02-21T01:15:03;0.10;;;0.00;;
69771;SDS011;57046;45.988;18.664;2023-02-21T01:17:29;0.10;;;0.00;;
69771;SDS011;57046;45.988;18.664;2023-02-21T01:19:54;0.20;;;0.10;;
69771;SDS011;57046;45.988;18.664;2023-02-21T01:22:20;0.10;;;0.00;;
69771;SDS011;57046;45.988;18.664;2023-02-21T01:24:47;0.25;;;0.22;;
69771;SDS011;57046;45.988;18.664;2023-02-21T01:27:13;0.10;;;0.00;;
69771;SDS011;57046;45.988;18.664;2023-02-21T01:29:38;0.10;;;0.00;;
69771;SDS011;57046;45.988;18.664;2023-02-21T01:32:04;0.20;;;0.10;;
69771;SDS011;57046;45.988;18.664;2023-02-21T01:34:29;0.20;;;0.00;;
69771;SDS011;57046;45.988;18.664;2023-02-21T01:36:54;0.10;;;0.00;;
69771;SDS011;57046;45.988;18.664;2023-02-21T01:39:20;0.10;;;0.10;;
69771;SDS011;57046;45.988;18.664;2023-02-21T01:41:45;0.37;;;0.03;;
69771;SDS011;57046;45.988;18.664;2023-02-21T01:44:28;0.20;;;0.20;;
69771;SDS011;57046;45.988;18.664;2023-02-21T01:46:59;1.00;;;0.52;;
69771;SDS011;57046;45.988;18.664;2023-02-21T01:49:25;0.10;;;0.00;;
69771;SDS011;57046;45.988;18.664;2023-02-21T01:51:50;0.40;;;0.23;;
69771;SDS011;57046;45.988;18.664;2023-02-21T01:54:17;0.57;;;0.38;;
69771;SDS011;57046;45.988;18.664;2023-02-21T01:56:44;1.38;;;0.35;;
69771;SDS011;57046;45.988;18.664;2023-02-21T01:59:10;0.10;;;0.00;;
69771;SDS011;57046;45.988;18.664;2023-02-21T02:01:44;0.10;;;0.00;;
69771;SDS011;57046;45.988;18.664;2023-02-21T02:04:22;0.10;;;0.00;;
69771;SDS011;57046;45.988;18.664;2023-02-21T02:06:48;0.20;;;0.10;;
69771;SDS011;57046;45.988;18.664;2023-02-21T02:09:15;0.10;;;0.10;;
69771;SDS011;57046;45.988;18.664;2023-02-21T02:11:45;0.10;;;0.00;;
69771;SDS011;57046;45.988;18.664;2023-02-21T02:45:29;0.10;;;0.00;;
69771;SDS011;57046;45.988;18.664;2023-02-21T02:50:45;0.20;;;0.10;;
69771;SDS011;57046;45.988;18.664;2023-02-21T02:53:14;0.10;;;0.00;;
69771;SDS011;57046;45.988;18.664;2023-02-21T02:58:11;0.17;;;0.17;;
69771;SDS011;57046;45.988;18.664;2023-02-21T03:00:38;0.10;;;0.03;;
69771;SDS011;57046;45.988;18.664;2023-02-21T03:03:28;0.20;;;0.10;;
69771;SDS011;57046;45.988;18.664;2023-02-21T03:06:12;0.10;;;0.00;;
69771;SDS011;57046;45.988;18.664;2023-02-21T03:08:51;0.20;;;0.10;;
69771;SDS011;57046;45.988;18.664;2023-02-21T03:11:43;0.10;;;0.00;;
69771;SDS011;57046;45.988;18.664;2023-02-21T03:14:20;0.10;;;0.00;;
69771;SDS011;57046;45.988;18.664;2023-02-21T03:16:53;0.17;;;0.00;;
69771;SDS011;57046;45.988;18.664;2023-02-21T03:19:45;0.17;;;0.13;;
69771;SDS011;57046;45.988;18.664;2023-02-21T03:22:18;0.10;;;0.00;;
69771;SDS011;57046;45.988;18.664;2023-02-21T03:24:47;0.10;;;0.00;;
69771;SDS011;57046;45.988;18.664;2023-02-21T03:27:14;0.10;;;0.00;;
69771;SDS011;57046;45.988;18.664;2023-02-21T03:29:41;0.63;;;0.30;;
69771;SDS011;57046;45.988;18.664;2023-02-21T03:32:09;0.93;;;0.32;;
69771;SDS011;57046;45.988;18.664;2023-02-21T03:34:41;0.35;;;0.00;;
69771;SDS011;57046;45.988;18.664;2023-02-21T03:37:10;0.20;;;0.17;;
69771;SDS011;57046;45.988;18.664;2023-02-21T03:39:44;0.88;;;0.47;;
69771;SDS011;57046;45.988;18.664;2023-02-21T03:42:10;0.20;;;0.20;;
69771;SDS011;57046;45.988;18.664;2023-02-21T03:44:35;0.10;;;0.00;;
69771;SDS011;57046;45.988;18.664;2023-02-21T03:47:00;0.13;;;0.00;;
69771;SDS011;57046;45.988;18.664;2023-02-21T03:49:26;0.10;;;0.07;;
69771;SDS011;57046;45.988;18.664;2023-02-21T03:51:51;0.10;;;0.00;;
69771;SDS011;57046;45.988;18.664;2023-02-21T03:54:16;0.10;;;0.00;;
69771;SDS011;57046;45.988;18.664;2023-02-21T03:56:42;0.30;;;0.30;;
69771;SDS011;57046;45.988;18.664;2023-02-21T03:59:07;0.23;;;0.23;;
69771;SDS011;57046;45.988;18.664;2023-02-21T04:01:33;0.10;;;0.00;;
69771;SDS011;57046;45.988;18.664;2023-02-21T04:03:58;0.10;;;0.00;;
69771;SDS011;57046;45.988;18.664;2023-02-21T04:06:23;0.10;;;0.00;;
69771;SDS011;57046;45.988;18.664;2023-02-21T04:08:49;0.13;;;0.03;;
69771;SDS011;57046;45.988;18.664;2023-02-21T04:11:17;0.20;;;0.10;;
69771;SDS011;57046;45.988;18.664;2023-02-21T04:13:44;0.10;;;0.00;;
69771;SDS011;57046;45.988;18.664;2023-02-21T04:16:10;0.10;;;0.10;;
69771;SDS011;57046;45.988;18.664;2023-02-21T04:18:35;1.70;;;0.27;;
69771;SDS011;57046;45.988;18.664;2023-02-21T04:21:00;0.53;;;0.53;;
69771;SDS011;57046;45.988;18.664;2023-02-21T04:23:26;0.20;;;0.10;;
69771;SDS011;57046;45.988;18.664;2023-02-21T04:25:51;0.30;;;0.30;;
69771;SDS011;57046;45.988;18.664;2023-02-21T04:28:16;0.10;;;0.00;;
69771;SDS011;57046;45.988;18.664;2023-02-21T04:30:42;0.20;;;0.20;;
69771;SDS011;57046;45.988;18.664;2023-02-21T04:33:07;0.33;;;0.23;;
69771;SDS011;57046;45.988;18.664;2023-02-21T04:35:33;0.20;;;0.10;;
69771;SDS011;57046;45.988;18.664;2023-02-21T04:37:58;0.10;;;0.00;;
69771;SDS011;57046;45.988;18.664;2023-02-21T04:40:23;0.50;;;0.23;;
69771;SDS011;57046;45.988;18.664;2023-02-21T04:42:49;0.10;;;0.00;;
69771;SDS011;57046;45.988;18.664;2023-02-21T04:45:14;0.10;;;0.00;;
69771;SDS011;57046;45.988;18.664;2023-02-21T04:47:39;0.20;;;0.00;;
69771;SDS011;57046;45.988;18.664;2023-02-21T04:50:05;0.30;;;0.30;;
69771;SDS011;57046;45.988;18.664;2023-02-21T04:52:31;0.10;;;0.00;;
69771;SDS011;57046;45.988;18.664;2023-02-21T04:54:56;0.20;;;0.10;;
69771;SDS011;57046;45.988;18.664;2023-02-21T04:57:22;0.22;;;0.22;;
69771;SDS011;57046;45.988;18.664;2023-02-21T04:59:47;0.10;;;0.00;;
69771;SDS011;57046;45.988;18.664;2023-02-21T05:02:13;0.10;;;0.05;;
69771;SDS011;57046;45.988;18.664;2023-02-21T05:04:39;0.17;;;0.10;;
69771;SDS011;57046;45.988;18.664;2023-02-21T05:07:04;0.10;;;0.00;;
69771;SDS011;57046;45.988;18.664;2023-02-21T05:09:30;0.32;;;0.17;;
69771;SDS011;57046;45.988;18.664;2023-02-21T05:11:56;0.17;;;0.10;;
69771;SDS011;57046;45.988;18.664;2023-02-21T05:14:21;0.10;;;0.00;;
69771;SDS011;57046;45.988;18.664;2023-02-21T05:16:46;0.20;;;0.17;;
69771;SDS011;57046;45.988;18.664;2023-02-21T05:19:12;0.17;;;0.17;;
69771;SDS011;57046;45.988;18.664;2023-02-21T05:21:41;0.40;;;0.20;;
69771;SDS011;57046;45.988;18.664;2023-02-21T05:24:07;0.40;;;0.40;;
69771;SDS011;57046;45.988;18.664;2023-02-21T05:26:34;0.10;;;0.00;;
69771;SDS011;57046;45.988;18.664;2023-02-21T05:29:01;0.10;;;0.00;;
69771;SDS011;57046;45.988;18.664;2023-02-21T05:31:27;0.10;;;0.05;;
69771;SDS011;57046;45.988;18.664;2023-02-21T05:33:52;0.10;;;0.10;;
69771;SDS011;57046;45.988;18.664;2023-02-21T05:36:18;0.43;;;0.07;;
69771;SDS011;57046;45.988;18.664;2023-02-21T05:38:44;1.03;;;0.77;;
69771;SDS011;57046;45.988;18.664;2023-02-21T05:41:11;0.28;;;0.28;;
69771;SDS011;57046;45.988;18.664;2023-02-21T05:43:37;0.55;;;0.55;;
69771;SDS011;57046;45.988;18.664;2023-02-21T05:46:02;0.10;;;0.00;;
69771;SDS011;57046;45.988;18.664;2023-02-21T05:48:27;0.30;;;0.30;;
69771;SDS011;57046;45.988;18.664;2023-02-21T05:50:53;0.93;;;0.30;;
69771;SDS011;57046;45.988;18.664;2023-02-21T05:53:18;0.37;;;0.37;;
69771;SDS011;57046;45.988;18.664;2023-02-21T05:55:43;0.38;;;0.15;;
69771;SDS011;57046;45.988;18.664;2023-02-21T05:58:09;0.10;;;0.03;;
69771;SDS011;57046;45.988;18.664;2023-02-21T06:00:34;0.30;;;0.20;;
69771;SDS011;57046;45.988;18.664;2023-02-21T06:02:59;0.20;;;0.10;;
69771;SDS011;57046;45.988;18.664;2023-02-21T06:05:25;0.20;;;0.10;;
69771;SDS011;57046;45.988;18.664;2023-02-21T06:07:51;0.30;;;0.10;;
69771;SDS011;57046;45.988;18.664;2023-02-21T06:10:16;0.10;;;0.00;;
69771;SDS011;57046;45.988;18.664;2023-02-21T06:12:43;0.13;;;0.13;;
69771;SDS011;57046;45.988;18.664;2023-02-21T06:15:08;0.40;;;0.17;;
69771;SDS011;57046;45.988;18.664;2023-02-21T06:17:40;0.47;;;0.45;;
69771;SDS011;57046;45.988;18.664;2023-02-21T06:20:07;0.10;;;0.00;;
69771;SDS011;57046;45.988;18.664;2023-02-21T06:22:37;0.03;;;0.03;;
69771;SDS011;57046;45.988;18.664;2023-02-21T06:25:02;0.13;;;0.13;;
69771;SDS011;57046;45.988;18.664;2023-02-21T06:27:28;0.10;;;0.10;;
69771;SDS011;57046;45.988;18.664;2023-02-21T06:29:53;0.28;;;0.20;;
69771;SDS011;57046;45.988;18.664;2023-02-21T06:32:19;0.10;;;0.03;;
69771;SDS011;57046;45.988;18.664;2023-02-21T06:34:45;0.30;;;0.17;;
69771;SDS011;57046;45.988;18.664;2023-02-21T06:37:10;1.63;;;0.40;;
69771;SDS011;57046;45.988;18.664;2023-02-21T06:39:37;0.40;;;0.40;;
69771;SDS011;57046;45.988;18.664;2023-02-21T06:42:03;0.10;;;0.00;;
69771;SDS011;57046;45.988;18.664;2023-02-21T06:44:28;0.33;;;0.33;;
69771;SDS011;57046;45.988;18.664;2023-02-21T06:46:53;0.20;;;0.20;;
69771;SDS011;57046;45.988;18.664;2023-02-21T06:49:19;0.13;;;0.10;;
69771;SDS011;57046;45.988;18.664;2023-02-21T06:51:45;0.25;;;0.22;;
69771;SDS011;57046;45.988;18.664;2023-02-21T06:54:11;0.10;;;0.00;;
69771;SDS011;57046;45.988;18.664;2023-02-21T06:56:36;0.10;;;0.00;;
69771;SDS011;57046;45.988;18.664;2023-02-21T06:59:02;0.10;;;0.00;;
69771;SDS011;57046;45.988;18.664;2023-02-21T07:01:28;0.30;;;0.30;;
69771;SDS011;57046;45.988;18.664;2023-02-21T07:03:54;0.10;;;0.00;;
69771;SDS011;57046;45.988;18.664;2023-02-21T07:06:21;0.17;;;0.10;;
69771;SDS011;57046;45.988;18.664;2023-02-21T07:08:47;0.30;;;0.28;;
69771;SDS011;57046;45.988;18.664;2023-02-21T07:11:12;0.37;;;0.30;;
69771;SDS011;57046;45.988;18.664;2023-02-21T07:13:39;0.15;;;0.10;;
69771;SDS011;57046;45.988;18.664;2023-02-21T07:16:04;1.13;;;1.03;;
69771;SDS011;57046;45.988;18.664;2023-02-21T07:18:30;3.60;;;1.23;;
69771;SDS011;57046;45.988;18.664;2023-02-21T07:20:56;0.70;;;0.60;;
69771;SDS011;57046;45.988;18.664;2023-02-21T07:23:21;0.25;;;0.25;;
69771;SDS011;57046;45.988;18.664;2023-02-21T07:25:47;0.10;;;0.10;;
69771;SDS011;57046;45.988;18.664;2023-02-21T07:28:12;0.83;;;0.50;;
69771;SDS011;57046;45.988;18.664;2023-02-21T07:30:38;0.70;;;0.50;;
69771;SDS011;57046;45.988;18.664;2023-02-21T07:33:03;0.07;;;0.00;;
69771;SDS011;57046;45.988;18.664;2023-02-21T07:35:29;0.17;;;0.10;;
69771;SDS011;57046;45.988;18.664;2023-02-21T07:37:55;0.10;;;0.00;;
69771;SDS011;57046;45.988;18.664;2023-02-21T07:40:20;0.57;;;0.20;;
69771;SDS011;57046;45.988;18.664;2023-02-21T07:42:46;0.13;;;0.00;;
69771;SDS011;57046;45.988;18.664;2023-02-21T07:45:11;0.10;;;0.03;;
69771;SDS011;57046;45.988;18.664;2023-02-21T07:47:37;0.10;;;0.00;;
69771;SDS011;57046;45.988;18.664;2023-02-21T07:50:03;0.40;;;0.20;;
69771;SDS011;57046;45.988;18.664;2023-02-21T07:52:29;0.30;;;0.20;;
69771;SDS011;57046;45.988;18.664;2023-02-21T07:54:55;1.73;;;0.97;;
69771;SDS011;57046;45.988;18.664;2023-02-21T07:57:20;0.28;;;0.28;;
69771;SDS011;57046;45.988;18.664;2023-02-21T07:59:46;1.23;;;1.17;;
69771;SDS011;57046;45.988;18.664;2023-02-21T08:02:11;0.10;;;0.07;;
69771;SDS011;57046;45.988;18.664;2023-02-21T08:04:37;1.15;;;0.82;;
69771;SDS011;57046;45.988;18.664;2023-02-21T08:07:02;0.20;;;0.20;;
69771;SDS011;57046;45.988;18.664;2023-02-21T08:09:29;0.20;;;0.08;;
69771;SDS011;57046;45.988;18.664;2023-02-21T08:11:55;0.30;;;0.30;;
69771;SDS011;57046;45.988;18.664;2023-02-21T08:14:20;0.20;;;0.20;;
69771;SDS011;57046;45.988;18.664;2023-02-21T08:16:45;0.20;;;0.13;;
69771;SDS011;57046;45.988;18.664;2023-02-21T08:19:11;0.20;;;0.10;;
69771;SDS011;57046;45.988;18.664;2023-02-21T08:21:36;0.40;;;0.20;;
69771;SDS011;57046;45.988;18.664;2023-02-21T08:24:02;0.40;;;0.40;;
69771;SDS011;57046;45.988;18.664;2023-02-21T08:26:27;0.10;;;0.10;;
69771;SDS011;57046;45.988;18.664;2023-02-21T08:28:53;0.10;;;0.07;;
69771;SDS011;57046;45.988;18.664;2023-02-21T08:31:18;0.15;;;0.08;;
69771;SDS011;57046;45.988;18.664;2023-02-21T08:33:44;1.30;;;0.37;;
69771;SDS011;57046;45.988;18.664;2023-02-21T08:36:10;0.50;;;0.45;;
69771;SDS011;57046;45.988;18.664;2023-02-21T08:38:35;0.10;;;0.00;;
69771;SDS011;57046;45.988;18.664;2023-02-21T08:41:01;0.10;;;0.00;;
69771;SDS011;57046;45.988;18.664;2023-02-21T08:43:26;0.33;;;0.33;;
69771;SDS011;57046;45.988;18.664;2023-02-21T08:45:51;0.23;;;0.17;;
69771;SDS011;57046;45.988;18.664;2023-02-21T08:48:17;0.10;;;0.03;;
69771;SDS011;57046;45.988;18.664;2023-02-21T08:50:42;0.43;;;0.30;;
69771;SDS011;57046;45.988;18.664;2023-02-21T08:53:08;0.20;;;0.20;;
69771;SDS011;57046;45.988;18.664;2023-02-21T08:55:35;2.83;;;0.60;;
69771;SDS011;57046;45.988;18.664;2023-02-21T08:58:01;1.07;;;0.47;;
69771;SDS011;57046;45.988;18.664;2023-02-21T09:00:26;0.10;;;0.07;;
69771;SDS011;57046;45.988;18.664;2023-02-21T09:02:51;0.20;;;0.20;;
69771;SDS011;57046;45.988;18.664;2023-02-21T09:05:19;0.23;;;0.23;;
69771;SDS011;57046;45.988;18.664;2023-02-21T09:07:50;0.10;;;0.10;;
69771;SDS011;57046;45.988;18.664;2023-02-21T09:10:16;0.30;;;0.30;;
69771;SDS011;57046;45.988;18.664;2023-02-21T09:12:42;0.10;;;0.10;;
69771;SDS011;57046;45.988;18.664;2023-02-21T09:15:07;1.13;;;0.70;;
69771;SDS011;57046;45.988;18.664;2023-02-21T09:17:33;0.10;;;0.00;;
69771;SDS011;57046;45.988;18.664;2023-02-21T09:20:08;0.40;;;0.17;;
69771;SDS011;57046;45.988;18.664;2023-02-21T09:22:41;0.73;;;0.20;;
69771;SDS011;57046;45.988;18.664;2023-02-21T09:25:10;0.40;;;0.23;;
69771;SDS011;57046;45.988;18.664;2023-02-21T09:27:36;0.20;;;0.20;;
69771;SDS011;57046;45.988;18.664;2023-02-21T09:30:05;0.30;;;0.30;;
69771;SDS011;57046;45.988;18.664;2023-02-21T09:32:35;0.30;;;0.28;;
69771;SDS011;57046;45.988;18.664;2023-02-21T09:35:01;0.43;;;0.13;;
69771;SDS011;57046;45.988;18.664;2023-02-21T09:37:27;0.75;;;0.75;;
69771;SDS011;57046;45.988;18.664;2023-02-21T09:39:52;0.57;;;0.43;;
69771;SDS011;57046;45.988;18.664;2023-02-21T09:42:18;0.73;;;0.40;;
69771;SDS011;57046;45.988;18.664;2023-02-21T09:44:48;0.30;;;0.30;;
69771;SDS011;57046;45.988;18.664;2023-02-21T09:47:15;0.10;;;0.00;;
69771;SDS011;57046;45.988;18.664;2023-02-21T09:49:50;0.20;;;0.10;;
69771;SDS011;57046;45.988;18.664;2023-02-21T09:52:24;1.30;;;0.90;;
69771;SDS011;57046;45.988;18.664;2023-02-21T09:54:57;0.50;;;0.35;;
69771;SDS011;57046;45.988;18.664;2023-02-21T09:57:26;0.10;;;0.03;;
69771;SDS011;57046;45.988;18.664;2023-02-21T09:59:51;0.75;;;0.32;;
69771;SDS011;57046;45.988;18.664;2023-02-21T10:13:22;1.95;;;0.50;;
69771;SDS011;57046;45.988;18.664;2023-02-21T10:21:53;0.73;;;0.52;;
69771;SDS011;57046;45.988;18.664;2023-02-21T10:24:21;0.20;;;0.20;;
69771;SDS011;57046;45.988;18.664;2023-02-21T10:26:52;0.95;;;0.17;;
69771;SDS011;57046;45.988;18.664;2023-02-21T10:32:27;0.20;;;0.00;;
69771;SDS011;57046;45.988;18.664;2023-02-21T10:34:53;0.65;;;0.35;;
69771;SDS011;57046;45.988;18.664;2023-02-21T10:43:15;1.10;;;0.30;;
69771;SDS011;57046;45.988;18.664;2023-02-21T10:45:56;0.20;;;0.03;;
69771;SDS011;57046;45.988;18.664;2023-02-21T10:48:23;0.45;;;0.30;;
69771;SDS011;57046;45.988;18.664;2023-02-21T11:04:05;0.20;;;0.20;;
69771;SDS011;57046;45.988;18.664;2023-02-21T11:06:49;0.30;;;0.20;;
69771;SDS011;57046;45.988;18.664;2023-02-21T11:09:22;0.25;;;0.22;;
69771;SDS011;57046;45.988;18.664;2023-02-21T11:14:41;0.20;;;0.10;;
69771;SDS011;57046;45.988;18.664;2023-02-21T11:17:16;0.32;;;0.32;;
69771;SDS011;57046;45.988;18.664;2023-02-21T11:27:27;1.60;;;0.55;;
69771;SDS011;57046;45.988;18.664;2023-02-21T11:29:55;0.20;;;0.20;;
69771;SDS011;57046;45.988;18.664;2023-02-21T11:32:25;0.60;;;0.60;;
69771;SDS011;57046;45.988;18.664;2023-02-21T11:35:03;0.50;;;0.50;;
69771;SDS011;57046;45.988;18.664;2023-02-21T11:37:55;2.60;;;0.50;;
69771;SDS011;57046;45.988;18.664;2023-02-21T11:48:44;0.10;;;0.00;;
69771;SDS011;57046;45.988;18.664;2023-02-21T11:51:24;0.75;;;0.75;;
69771;SDS011;57046;45.988;18.664;2023-02-21T11:53:55;0.52;;;0.52;;
69771;SDS011;57046;45.988;18.664;2023-02-21T12:15:29;0.28;;;0.20;;
69771;SDS011;57046;45.988;18.664;2023-02-21T12:29:16;0.40;;;0.40;;
69771;SDS011;57046;45.988;18.664;2023-02-21T12:37:52;0.93;;;0.82;;
69771;SDS011;57046;45.988;18.664;2023-02-21T12:43:04;0.10;;;0.03;;
69771;SDS011;57046;45.988;18.664;2023-02-21T12:45:55;0.50;;;0.50;;
69771;SDS011;57046;45.988;18.664;2023-02-21T12:48:57;0.70;;;0.70;;
69771;SDS011;57046;45.988;18.664;2023-02-21T12:51:25;0.30;;;0.25;;
69771;SDS011;57046;45.988;18.664;2023-02-21T12:56:25;0.40;;;0.40;;
69771;SDS011;57046;45.988;18.664;2023-02-21T12:59:02;0.30;;;0.25;;
69771;SDS011;57046;45.988;18.664;2023-02-21T13:01:33;0.38;;;0.30;;
69771;SDS011;57046;45.988;18.664;2023-02-21T13:06:49;0.20;;;0.10;;
69771;SDS011;57046;45.988;18.664;2023-02-21T13:09:29;0.75;;;0.40;;
69771;SDS011;57046;45.988;18.664;2023-02-21T13:14:32;0.82;;;0.45;;
69771;SDS011;57046;45.988;18.664;2023-02-21T13:17:19;0.30;;;0.20;;
69771;SDS011;57046;45.988;18.664;2023-02-21T13:20:01;0.93;;;0.33;;
69771;SDS011;57046;45.988;18.664;2023-02-21T13:28:19;0.52;;;0.35;;
69771;SDS011;57046;45.988;18.664;2023-02-21T13:30:53;0.20;;;0.17;;
69771;SDS011;57046;45.988;18.664;2023-02-21T13:33:36;0.17;;;0.05;;
69771;SDS011;57046;45.988;18.664;2023-02-21T13:36:17;1.08;;;0.25;;
69771;SDS011;57046;45.988;18.664;2023-02-21T13:38:44;0.20;;;0.10;;
69771;SDS011;57046;45.988;18.664;2023-02-21T13:41:10;0.10;;;0.10;;
69771;SDS011;57046;45.988;18.664;2023-02-21T13:43:44;0.20;;;0.20;;
69771;SDS011;57046;45.988;18.664;2023-02-21T13:51:53;0.30;;;0.03;;
69771;SDS011;57046;45.988;18.664;2023-02-21T13:57:37;0.10;;;0.00;;
69771;SDS011;57046;45.988;18.664;2023-02-21T14:10:58;0.30;;;0.30;;
69771;SDS011;57046;45.988;18.664;2023-02-21T14:13:51;0.20;;;0.20;;
69771;SDS011;57046;45.988;18.664;2023-02-21T14:21:40;2.38;;;0.50;;
69771;SDS011;57046;45.988;18.664;2023-02-21T14:26:42;0.50;;;0.20;;
69771;SDS011;57046;45.988;18.664;2023-02-21T14:29:30;0.10;;;0.00;;
69771;SDS011;57046;45.988;18.664;2023-02-21T14:50:35;0.30;;;0.20;;
69771;SDS011;57046;45.988;18.664;2023-02-21T15:04:08;0.30;;;0.10;;
69771;SDS011;57046;45.988;18.664;2023-02-21T15:06:42;4.03;;;0.40;;
69771;SDS011;57046;45.988;18.664;2023-02-21T15:09:17;0.20;;;0.15;;
69771;SDS011;57046;45.988;18.664;2023-02-21T15:11:44;0.20;;;0.20;;
69771;SDS011;57046;45.988;18.664;2023-02-21T15:19:40;0.82;;;0.73;;
69771;SDS011;57046;45.988;18.664;2023-02-21T15:22:22;0.10;;;0.00;;
69771;SDS011;57046;45.988;18.664;2023-02-21T15:27:31;0.20;;;0.20;;
69771;SDS011;57046;45.988;18.664;2023-02-21T15:30:05;0.20;;;0.20;;
69771;SDS011;57046;45.988;18.664;2023-02-21T15:32:37;0.10;;;0.10;;
69771;SDS011;57046;45.988;18.664;2023-02-21T15:35:04;0.10;;;0.00;;
69771;SDS011;57046;45.988;18.664;2023-02-21T15:37:31;0.38;;;0.38;;
69771;SDS011;57046;45.988;18.664;2023-02-21T15:40:04;0.95;;;0.20;;
69771;SDS011;57046;45.988;18.664;2023-02-21T15:42:38;0.77;;;0.20;;
69771;SDS011;57046;45.988;18.664;2023-02-21T15:45:06;0.50;;;0.43;;
69771;SDS011;57046;45.988;18.664;2023-02-21T15:47:39;0.82;;;0.10;;
69771;SDS011;57046;45.988;18.664;2023-02-21T15:50:12;0.33;;;0.13;;
69771;SDS011;57046;45.988;18.664;2023-02-21T15:52:39;0.83;;;0.70;;
69771;SDS011;57046;45.988;18.664;2023-02-21T16:00:18;0.45;;;0.25;;
69771;SDS011;57046;45.988;18.664;2023-02-21T16:02:44;1.00;;;0.52;;
69771;SDS011;57046;45.988;18.664;2023-02-21T16:05:25;0.20;;;0.20;;
69771;SDS011;57046;45.988;18.664;2023-02-21T16:07:53;0.40;;;0.20;;
69771;SDS011;57046;45.988;18.664;2023-02-21T16:10:25;0.30;;;0.20;;
69771;SDS011;57046;45.988;18.664;2023-02-21T16:12:54;0.57;;;0.57;;
69771;SDS011;57046;45.988;18.664;2023-02-21T16:15:24;1.17;;;1.00;;
69771;SDS011;57046;45.988;18.664;2023-02-21T16:17:59;1.67;;;0.57;;
69771;SDS011;57046;45.988;18.664;2023-02-21T16:20:30;0.32;;;0.28;;
69771;SDS011;57046;45.988;18.664;2023-02-21T16:28:31;1.27;;;0.73;;
69771;SDS011;57046;45.988;18.664;2023-02-21T16:30:58;0.43;;;0.30;;
69771;SDS011;57046;45.988;18.664;2023-02-21T16:33:26;0.40;;;0.40;;
69771;SDS011;57046;45.988;18.664;2023-02-21T16:35:53;0.40;;;0.38;;
69771;SDS011;57046;45.988;18.664;2023-02-21T16:38:23;0.50;;;0.50;;
69771;SDS011;57046;45.988;18.664;2023-02-21T16:40:49;0.90;;;0.87;;
69771;SDS011;57046;45.988;18.664;2023-02-21T16:43:25;1.80;;;0.70;;
69771;SDS011;57046;45.988;18.664;2023-02-21T16:45:53;3.67;;;1.88;;
69771;SDS011;57046;45.988;18.664;2023-02-21T16:48:21;3.60;;;1.98;;
69771;SDS011;57046;45.988;18.664;2023-02-21T16:50:53;0.83;;;0.80;;
69771;SDS011;57046;45.988;18.664;2023-02-21T16:53:19;0.50;;;0.50;;
69771;SDS011;57046;45.988;18.664;2023-02-21T16:55:45;0.90;;;0.60;;
69771;SDS011;57046;45.988;18.664;2023-02-21T16:58:54;1.20;;;0.60;;
69771;SDS011;57046;45.988;18.664;2023-02-21T17:01:05;0.30;;;0.10;;
69771;SDS011;57046;45.988;18.664;2023-02-21T17:03:35;1.10;;;0.60;;
69771;SDS011;57046;45.988;18.664;2023-02-21T17:06:01;0.63;;;0.63;;
69771;SDS011;57046;45.988;18.664;2023-02-21T17:08:26;1.07;;;1.07;;
69771;SDS011;57046;45.988;18.664;2023-02-21T17:10:52;0.43;;;0.30;;
69771;SDS011;57046;45.988;18.664;2023-02-21T17:13:18;0.55;;;0.55;;
69771;SDS011;57046;45.988;18.664;2023-02-21T17:15:43;1.53;;;1.30;;
69771;SDS011;57046;45.988;18.664;2023-02-21T17:18:09;0.20;;;0.20;;
69771;SDS011;57046;45.988;18.664;2023-02-21T17:20:35;4.43;;;1.67;;
69771;SDS011;57046;45.988;18.664;2023-02-21T17:23:00;0.20;;;0.20;;
69771;SDS011;57046;45.988;18.664;2023-02-21T17:25:26;1.67;;;1.17;;
69771;SDS011;57046;45.988;18.664;2023-02-21T17:27:52;2.13;;;2.03;;
69771;SDS011;57046;45.988;18.664;2023-02-21T17:30:18;3.72;;;2.00;;
69771;SDS011;57046;45.988;18.664;2023-02-21T17:32:45;2.53;;;1.57;;
69771;SDS011;57046;45.988;18.664;2023-02-21T17:35:11;8.73;;;2.78;;
69771;SDS011;57046;45.988;18.664;2023-02-21T17:37:38;0.98;;;0.63;;
69771;SDS011;57046;45.988;18.664;2023-02-21T17:40:03;0.87;;;0.87;;
69771;SDS011;57046;45.988;18.664;2023-02-21T17:42:29;1.15;;;0.80;;
69771;SDS011;57046;45.988;18.664;2023-02-21T17:44:55;1.87;;;1.17;;
69771;SDS011;57046;45.988;18.664;2023-02-21T17:47:21;2.13;;;1.20;;
69771;SDS011;57046;45.988;18.664;2023-02-21T17:49:48;1.53;;;0.80;;
69771;SDS011;57046;45.988;18.664;2023-02-21T17:52:14;2.50;;;0.90;;
69771;SDS011;57046;45.988;18.664;2023-02-21T17:54:40;0.47;;;0.47;;
69771;SDS011;57046;45.988;18.664;2023-02-21T17:57:06;3.72;;;0.90;;
69771;SDS011;57046;45.988;18.664;2023-02-21T17:59:36;2.27;;;1.50;;
69771;SDS011;57046;45.988;18.664;2023-02-21T18:02:02;1.80;;;1.70;;
69771;SDS011;57046;45.988;18.664;2023-02-21T18:04:29;3.53;;;2.63;;
69771;SDS011;57046;45.988;18.664;2023-02-21T18:06:54;1.70;;;1.57;;
69771;SDS011;57046;45.988;18.664;2023-02-21T18:09:20;1.80;;;1.70;;
69771;SDS011;57046;45.988;18.664;2023-02-21T18:11:47;1.27;;;1.17;;
69771;SDS011;57046;45.988;18.664;2023-02-21T18:14:13;6.73;;;1.63;;
69771;SDS011;57046;45.988;18.664;2023-02-21T18:16:39;1.63;;;1.30;;
69771;SDS011;57046;45.988;18.664;2023-02-21T18:19:05;1.47;;;0.53;;
69771;SDS011;57046;45.988;18.664;2023-02-21T18:21:30;0.70;;;0.70;;
69771;SDS011;57046;45.988;18.664;2023-02-21T18:23:56;0.77;;;0.63;;